createdAt,value
2023-01-03T00:01:17.073Z,10.75
2023-01-03T00:03:43.953Z,9.07
2023-01-03T00:06:36.575Z,10.45
2023-01-03T00:09:06.525Z,11.55
2023-01-03T00:11:52.765Z,13.13
2023-01-03T00:14:23.484Z,10.25
2023-01-03T00:16:54.798Z,8.70
2023-01-03T00:19:23.162Z,12.57
2023-01-03T00:21:49.845Z,10.07
2023-01-03T00:24:16.784Z,12.82
2023-01-03T00:26:44.129Z,13.27
2023-01-03T00:29:12.134Z,9.30
2023-01-03T00:31:39.732Z,12.88
2023-01-03T00:34:06.907Z,13.85
2023-01-03T00:36:35.575Z,13.13
2023-01-03T00:39:02.527Z,12.68
2023-01-03T00:41:30.479Z,13.05
2023-01-03T00:43:58.065Z,8.98
2023-01-03T00:46:25.164Z,12.60
2023-01-03T00:48:52.010Z,14.32
2023-01-03T00:51:23.967Z,11.85
2023-01-03T00:53:53.305Z,12.80
2023-01-03T00:56:21.440Z,13.52
2023-01-03T00:58:48.854Z,10.82
2023-01-03T01:01:18.546Z,12.15
2023-01-03T01:03:47.925Z,12.70
2023-01-03T01:06:24.465Z,13.18
2023-01-03T01:08:53.412Z,11.35
2023-01-03T01:11:21.078Z,13.23
2023-01-03T01:13:48.905Z,12.05
2023-01-03T01:16:23.181Z,12.88
2023-01-03T01:18:53.599Z,12.77
2023-01-03T01:21:23.293Z,12.10
2023-01-03T01:23:50.300Z,10.90
2023-01-03T01:26:24.055Z,11.77
2023-01-03T01:28:52.368Z,11.27
2023-01-03T01:31:24.112Z,11.77
2023-01-03T01:33:52.519Z,11.02
2023-01-03T01:36:30.811Z,11.32
2023-01-03T01:39:06.261Z,10.77
2023-01-03T01:41:53.831Z,11.00
2023-01-03T01:44:44.725Z,10.20
2023-01-03T01:47:13.480Z,9.80
2023-01-03T01:49:40.381Z,10.13
2023-01-03T01:52:07.548Z,10.43
2023-01-03T01:54:34.394Z,10.20
2023-01-03T01:57:01.026Z,10.40
2023-01-03T01:59:28.408Z,10.27
2023-01-03T02:01:55.776Z,11.20
2023-01-03T02:04:27.003Z,10.20
2023-01-03T02:06:54.162Z,9.32
2023-01-03T02:09:20.823Z,9.60
2023-01-03T02:11:47.558Z,10.27
2023-01-03T02:14:57.238Z,9.50
2023-01-03T02:17:33.324Z,10.27
2023-01-03T02:20:09.511Z,9.90
2023-01-03T02:23:12.334Z,9.93
2023-01-03T02:26:20.046Z,9.02
2023-01-03T02:29:01.765Z,10.00
2023-01-03T02:31:38.136Z,10.07
2023-01-03T02:34:47.088Z,9.63
2023-01-03T02:37:35.144Z,9.55
2023-01-03T02:40:25.111Z,10.85
2023-01-03T02:43:10.689Z,9.48
2023-01-03T02:45:43.055Z,8.63
2023-01-03T02:48:18.799Z,9.35
2023-01-03T02:50:51.805Z,8.55
2023-01-03T02:53:26.492Z,8.73
2023-01-03T02:58:25.555Z,8.88
2023-01-03T03:00:55.977Z,9.00
2023-01-03T03:03:28.071Z,8.68
2023-01-03T03:06:21.138Z,8.73
2023-01-03T03:08:48.226Z,8.15
2023-01-03T03:11:34.213Z,9.25
2023-01-03T03:14:27.676Z,8.85
2023-01-03T03:16:56.057Z,8.85
2023-01-03T03:19:48.191Z,8.85
2023-01-03T03:22:42.244Z,9.25
2023-01-03T03:25:43.235Z,9.73
2023-01-03T03:28:33.198Z,9.68
2023-01-03T03:31:12.603Z,9.80
2023-01-03T03:33:59.096Z,8.50
2023-01-03T03:36:35.153Z,9.88
2023-01-03T03:39:03.594Z,9.82
2023-01-03T03:42:04.729Z,9.88
2023-01-03T03:45:02.348Z,10.38
2023-01-03T03:47:35.309Z,9.93
2023-01-03T03:50:11.369Z,10.07
2023-01-03T03:52:42.514Z,9.70
2023-01-03T03:55:25.803Z,10.52
2023-01-03T03:58:03.870Z,10.25
2023-01-03T04:00:34.880Z,9.73
2023-01-03T04:03:03.533Z,9.98
2023-01-03T04:05:34.584Z,10.65
2023-01-03T04:08:01.336Z,11.50
2023-01-03T04:10:31.372Z,11.65
2023-01-03T04:13:00.784Z,10.90
2023-01-03T04:15:27.563Z,11.48
2023-01-03T04:17:54.267Z,10.82
2023-01-03T04:20:21.070Z,13.10
2023-01-03T04:22:47.733Z,12.20
2023-01-03T04:25:14.399Z,11.35
2023-01-03T04:27:41.039Z,11.55
2023-01-03T04:30:08.651Z,11.65
2023-01-03T04:32:35.386Z,11.38
2023-01-03T04:35:02.066Z,11.13
2023-01-03T04:37:28.801Z,11.27
2023-01-03T04:39:55.401Z,9.52
2023-01-03T04:42:40.558Z,10.70
2023-01-03T04:45:08.062Z,10.63
2023-01-03T04:47:34.740Z,10.38
2023-01-03T04:50:01.345Z,10.27
2023-01-03T04:52:29.461Z,12.02
2023-01-03T04:54:56.184Z,11.23
2023-01-03T04:57:22.980Z,11.63
2023-01-03T04:59:49.575Z,11.50
2023-01-03T05:02:16.316Z,11.20
2023-01-03T05:04:43.398Z,11.52
2023-01-03T05:07:10.146Z,10.40
2023-01-03T05:09:36.789Z,10.82
2023-01-03T05:12:03.632Z,11.57
2023-01-03T05:14:30.281Z,11.32
2023-01-03T05:16:56.938Z,11.55
2023-01-03T05:19:23.677Z,10.68
2023-01-03T05:22:09.135Z,11.38
2023-01-03T05:24:55.696Z,12.30
2023-01-03T05:27:22.541Z,10.00
2023-01-03T05:29:52.298Z,11.18
2023-01-03T05:32:19.085Z,12.25
2023-01-03T05:34:45.886Z,11.38
2023-01-03T05:37:12.511Z,11.23
2023-01-03T05:39:39.157Z,11.82
2023-01-03T05:42:05.901Z,13.05
2023-01-03T05:44:34.170Z,12.77
2023-01-03T05:47:02.736Z,12.25
2023-01-03T05:49:29.573Z,12.20
2023-01-03T05:51:56.493Z,12.68
2023-01-03T05:54:23.222Z,11.60
2023-01-03T05:56:51.190Z,12.48
2023-01-03T05:59:19.247Z,12.70
2023-01-03T06:01:46.120Z,11.30
2023-01-03T06:04:12.912Z,13.98
2023-01-03T06:06:39.878Z,13.50
2023-01-03T06:09:06.703Z,13.45
2023-01-03T06:11:33.348Z,13.60
2023-01-03T06:14:00.197Z,12.07
2023-01-03T06:16:45.483Z,12.75
2023-01-03T06:19:12.574Z,12.63
2023-01-03T06:21:41.304Z,12.98
2023-01-03T06:24:09.078Z,11.82
2023-01-03T06:26:36.300Z,10.80
2023-01-03T06:29:03.330Z,14.52
2023-01-03T06:31:30.121Z,12.85
2023-01-03T06:33:56.916Z,12.35
2023-01-03T06:36:25.999Z,13.10
2023-01-03T06:38:53.669Z,13.52
2023-01-03T06:41:20.810Z,11.07
2023-01-03T06:43:47.704Z,12.43
2023-01-03T06:46:33.375Z,10.50
2023-01-03T06:49:19.173Z,11.88
2023-01-03T06:52:07.076Z,8.43
2023-01-03T06:54:36.929Z,12.85
2023-01-03T06:57:04.416Z,12.38
2023-01-03T06:59:31.369Z,11.90
2023-01-03T07:01:58.366Z,11.30
2023-01-03T07:04:26.247Z,12.02
2023-01-03T07:06:53.093Z,12.27
2023-01-03T07:09:19.871Z,11.00
2023-01-03T07:11:46.678Z,12.80
2023-01-03T07:14:13.338Z,12.60
2023-01-03T07:16:43.442Z,11.63
2023-01-03T07:19:16.449Z,11.43
2023-01-03T07:21:44.434Z,11.60
2023-01-03T07:24:13.221Z,13.95
2023-01-03T07:26:40.319Z,9.50
2023-01-03T07:29:09.301Z,14.07
2023-01-03T07:31:39.688Z,11.05
2023-01-03T07:34:06.420Z,12.20
2023-01-03T07:36:33.129Z,12.95
2023-01-03T07:38:59.912Z,6.97
2023-01-03T07:41:46.917Z,9.30
2023-01-03T07:44:13.699Z,11.40
2023-01-03T07:46:40.463Z,12.93
2023-01-03T07:49:11.415Z,8.75
2023-01-03T07:51:39.019Z,9.15
2023-01-03T07:54:07.543Z,10.93
2023-01-03T07:56:34.605Z,7.85
2023-01-03T07:59:02.105Z,7.25
2023-01-03T08:01:30.142Z,7.22
2023-01-03T08:03:57.122Z,8.40
2023-01-03T08:06:24.233Z,9.55
2023-01-03T08:09:11.106Z,5.53
2023-01-03T08:11:57.125Z,9.82
2023-01-03T08:14:26.808Z,6.65
2023-01-03T08:16:54.794Z,10.30
2023-01-03T08:19:21.872Z,11.00
2023-01-03T08:21:48.506Z,9.95
2023-01-03T08:24:15.208Z,7.93
2023-01-03T08:26:41.840Z,11.98
2023-01-03T08:29:08.982Z,10.27
2023-01-03T08:31:40.531Z,3.17
2023-01-03T08:34:17.040Z,10.90
2023-01-03T08:36:55.479Z,11.90
2023-01-03T08:39:27.050Z,11.25
2023-01-03T08:42:00.565Z,15.45
2023-01-03T08:44:27.214Z,14.02
2023-01-03T08:46:56.752Z,12.75
2023-01-03T08:49:23.841Z,12.77
2023-01-03T08:51:50.514Z,17.25
2023-01-03T08:54:17.101Z,15.32
2023-01-03T08:56:43.894Z,13.10
2023-01-03T08:59:10.549Z,18.85
2023-01-03T09:01:37.344Z,17.48
2023-01-03T09:04:05.546Z,18.58
2023-01-03T09:06:32.444Z,15.18
2023-01-03T09:08:59.266Z,17.45
2023-01-03T09:11:25.919Z,17.50
2023-01-03T09:13:55.390Z,15.68
2023-01-03T09:16:22.222Z,17.08
2023-01-03T09:18:48.950Z,19.80
2023-01-03T09:21:15.552Z,14.73
2023-01-03T09:23:42.239Z,19.00
2023-01-03T09:26:08.893Z,20.00
2023-01-03T09:28:35.584Z,20.80
2023-01-03T09:31:02.413Z,23.10
2023-01-03T09:33:29.273Z,20.38
2023-01-03T09:35:55.986Z,19.02
2023-01-03T09:38:23.471Z,20.27
2023-01-03T09:41:00.929Z,18.92
2023-01-03T09:43:42.214Z,23.08
2023-01-03T09:46:35.495Z,14.48
2023-01-03T09:49:05.209Z,21.52
2023-01-03T09:51:59.370Z,16.80
2023-01-03T09:54:51.671Z,20.38
2023-01-03T09:57:42.442Z,24.77
2023-01-03T10:00:36.729Z,23.63
2023-01-03T10:03:51.445Z,17.83
2023-01-03T10:06:51.210Z,10.38
2023-01-03T10:09:46.782Z,15.07
2023-01-03T10:12:23.228Z,23.80
2023-01-03T10:15:12.934Z,19.77
2023-01-03T10:17:39.714Z,21.17
2023-01-03T10:20:20.481Z,18.83
2023-01-03T10:22:48.893Z,20.65
2023-01-03T10:25:23.881Z,18.77
2023-01-03T10:28:45.924Z,14.50
2023-01-03T10:31:50.235Z,20.95
2023-01-03T10:34:16.929Z,18.05
2023-01-03T10:36:43.567Z,22.95
2023-01-03T10:39:11.448Z,24.52
2023-01-03T10:41:46.748Z,20.60
2023-01-03T10:44:55.886Z,20.30
2023-01-03T10:47:27.941Z,21.85
2023-01-03T10:50:02.989Z,22.02
2023-01-03T10:52:40.720Z,15.90
2023-01-03T10:55:16.700Z,18.15
2023-01-03T10:57:57.204Z,22.02
2023-01-03T11:00:36.010Z,18.45
2023-01-03T11:03:13.114Z,23.98
2023-01-03T11:05:42.120Z,19.52
2023-01-03T11:08:19.356Z,19.65
2023-01-03T11:10:55.113Z,16.85
2023-01-03T11:13:41.494Z,17.85
2023-01-03T11:16:17.729Z,20.63
2023-01-03T11:19:04.038Z,19.08
2023-01-03T11:21:43.297Z,14.23
2023-01-03T11:24:47.704Z,20.42
2023-01-03T11:27:42.320Z,9.48
2023-01-03T11:30:27.589Z,18.20
2023-01-03T11:33:07.447Z,14.95
2023-01-03T11:36:10.316Z,14.35
2023-01-03T11:39:14.490Z,14.10
2023-01-03T11:42:07.353Z,10.30
2023-01-03T11:44:53.378Z,13.90
2023-01-03T11:48:04.721Z,9.77
2023-01-03T11:50:53.249Z,11.95
2023-01-03T11:53:36.778Z,13.27
2023-01-03T11:56:19.689Z,13.23
2023-01-03T11:59:04.084Z,13.63
2023-01-03T12:01:44.770Z,13.07
2023-01-03T12:04:34.617Z,14.35
2023-01-03T12:07:47.048Z,14.02
2023-01-03T12:10:13.275Z,9.38
2023-01-03T12:13:14.145Z,14.88
2023-01-03T12:15:52.062Z,12.25
2023-01-03T12:18:56.696Z,12.20
2023-01-03T12:21:35.825Z,11.70
2023-01-03T12:24:30.633Z,10.75
2023-01-03T12:27:13.549Z,7.57
2023-01-03T12:30:13.799Z,9.27
2023-01-03T12:32:48.260Z,11.35
2023-01-03T12:35:17.816Z,7.38
2023-01-03T12:37:48.999Z,8.80
2023-01-03T12:40:26.535Z,7.72
2023-01-03T12:43:05.196Z,9.80
2023-01-03T12:45:43.299Z,7.07
2023-01-03T12:48:31.054Z,7.93
2023-01-03T12:50:58.137Z,6.85
2023-01-03T12:53:56.890Z,7.47
2023-01-03T12:57:02.097Z,9.15
2023-01-03T12:59:57.006Z,6.45
2023-01-03T13:02:42.138Z,7.82
2023-01-03T13:05:47.732Z,8.13
2023-01-03T13:08:22.844Z,9.32
2023-01-03T13:10:52.912Z,4.95
2023-01-03T13:13:21.659Z,7.65
2023-01-03T13:15:48.909Z,7.43
2023-01-03T13:18:21.663Z,6.88
2023-01-03T13:20:55.162Z,7.95
2023-01-03T13:23:57.435Z,7.05
2023-01-03T13:26:28.655Z,7.50
2023-01-03T13:29:33.179Z,7.72
2023-01-03T13:32:15.046Z,7.45
2023-01-03T13:34:42.113Z,7.57
2023-01-03T13:37:08.769Z,5.70
2023-01-03T13:39:38.637Z,7.70
2023-01-03T13:42:06.163Z,7.05
2023-01-03T13:44:32.849Z,7.00
2023-01-03T13:46:59.981Z,6.22
2023-01-03T13:49:28.861Z,5.90
2023-01-03T13:51:57.813Z,7.88
2023-01-03T13:54:26.531Z,5.65
2023-01-03T13:56:57.357Z,7.20
2023-01-03T13:59:42.533Z,7.55
2023-01-03T14:05:32.714Z,7.72
2023-01-03T14:08:13.879Z,5.50
2023-01-03T14:10:59.532Z,5.80
2023-01-03T14:13:46.983Z,5.25
2023-01-03T14:16:25.787Z,6.85
2023-01-03T14:18:58.292Z,5.38
2023-01-03T14:21:30.831Z,7.13
2023-01-03T14:24:01.300Z,6.03
2023-01-03T14:26:31.429Z,5.07
2023-01-03T14:28:58.338Z,7.75
2023-01-03T14:31:28.575Z,5.25
2023-01-03T14:34:00.631Z,6.90
2023-01-03T14:36:28.266Z,6.65
2023-01-03T14:38:59.759Z,6.07
2023-01-03T14:41:37.476Z,5.43
2023-01-03T14:44:07.128Z,6.65
2023-01-03T14:46:35.157Z,4.40
2023-01-03T14:49:05.854Z,6.10
2023-01-03T14:51:34.613Z,6.55
2023-01-03T14:54:02.392Z,5.80
2023-01-03T14:56:29.800Z,4.47
2023-01-03T14:58:57.319Z,4.47
2023-01-03T15:01:24.708Z,4.95
2023-01-03T15:03:53.178Z,5.50
2023-01-03T15:06:29.573Z,5.78
2023-01-03T15:09:01.369Z,5.68
2023-01-03T15:11:28.185Z,3.58
2023-01-03T15:14:05.866Z,4.22
2023-01-03T15:16:36.257Z,4.63
2023-01-03T15:19:27.196Z,4.55
2023-01-03T15:22:07.061Z,4.90
2023-01-03T15:24:43.675Z,4.93
2023-01-03T15:27:38.308Z,4.80
2023-01-03T15:30:17.709Z,4.60
2023-01-03T15:32:59.183Z,4.22
2023-01-03T15:35:42.346Z,4.72
2023-01-03T15:38:32.312Z,4.00
2023-01-03T15:40:59.809Z,4.57
2023-01-03T15:43:37.735Z,5.15
2023-01-03T15:46:04.537Z,4.72
2023-01-03T15:48:35.575Z,4.85
2023-01-03T15:51:03.963Z,3.80
2023-01-03T15:53:39.221Z,3.92
2023-01-03T15:56:21.343Z,3.22
2023-01-03T15:58:50.104Z,4.18
2023-01-03T16:01:19.079Z,4.10
2023-01-03T16:03:47.769Z,3.75
2023-01-03T16:06:14.733Z,3.22
2023-01-03T16:08:42.634Z,3.72
2023-01-03T16:11:25.540Z,3.38
2023-01-03T16:13:58.827Z,3.50
2023-01-03T16:16:29.191Z,3.70
2023-01-03T16:18:56.899Z,4.03
2023-01-03T16:21:24.240Z,3.92
2023-01-03T16:23:51.325Z,3.33
2023-01-03T16:26:19.098Z,3.70
2023-01-03T16:28:45.955Z,3.97
2023-01-03T16:31:30.231Z,4.10
2023-01-03T16:33:57.111Z,3.80
2023-01-03T16:36:31.523Z,3.47
2023-01-03T16:38:59.442Z,2.95
2023-01-03T16:41:26.640Z,3.20
2023-01-03T16:43:54.345Z,3.50
2023-01-03T16:46:26.266Z,3.20
2023-01-03T16:48:55.438Z,4.22
2023-01-03T16:51:25.948Z,4.20
2023-01-03T16:53:54.504Z,3.15
2023-01-03T16:56:21.498Z,3.83
2023-01-03T16:58:48.398Z,3.60
2023-01-03T17:01:15.192Z,3.80
2023-01-03T17:03:42.725Z,4.47
2023-01-03T17:06:37.484Z,2.55
2023-01-03T17:09:32.716Z,5.35
2023-01-03T17:11:59.418Z,3.95
2023-01-03T17:14:26.292Z,4.07
2023-01-03T17:16:53.318Z,4.15
2023-01-03T17:20:02.837Z,4.30
2023-01-03T17:22:17.249Z,3.22
2023-01-03T17:24:44.442Z,4.20
2023-01-03T17:27:31.451Z,4.20
2023-01-03T17:30:02.865Z,3.42
2023-01-03T17:32:30.375Z,4.50
2023-01-03T17:34:57.114Z,4.50
2023-01-03T17:37:24.616Z,3.85
2023-01-03T17:39:57.427Z,4.28
2023-01-03T17:42:25.467Z,3.45
2023-01-03T17:45:12.016Z,3.75
2023-01-03T17:47:59.808Z,4.82
2023-01-03T17:50:28.058Z,3.38
2023-01-03T17:52:56.429Z,4.00
2023-01-03T17:55:26.206Z,5.75
2023-01-03T17:57:53.742Z,4.43
2023-01-03T18:00:24.357Z,5.28
2023-01-03T18:02:52.371Z,3.55
2023-01-03T18:05:26.998Z,4.43
2023-01-03T18:08:00.221Z,4.15
2023-01-03T18:10:45.819Z,4.00
2023-01-03T18:13:28.245Z,3.17
2023-01-03T18:15:55.615Z,3.42
2023-01-03T18:18:24.001Z,3.55
2023-01-03T18:20:51.106Z,5.22
2023-01-03T18:23:38.461Z,4.97
2023-01-03T18:26:07.988Z,4.20
2023-01-03T18:28:34.857Z,2.97
2023-01-03T18:31:01.588Z,4.13
2023-01-03T18:33:28.256Z,4.88
2023-01-03T18:35:55.228Z,5.28
2023-01-03T18:38:30.862Z,4.38
2023-01-03T18:41:04.379Z,4.95
2023-01-03T18:43:32.496Z,3.75
2023-01-03T18:45:59.338Z,3.60
2023-01-03T18:48:25.998Z,3.58
2023-01-03T18:50:58.422Z,3.75
2023-01-03T18:53:30.898Z,4.60
2023-01-03T18:55:57.773Z,4.50
2023-01-03T18:58:31.802Z,4.65
2023-01-03T19:00:58.770Z,4.72
2023-01-03T19:03:28.194Z,3.40
2023-01-03T19:05:55.735Z,3.92
2023-01-03T19:08:25.590Z,3.03
2023-01-03T19:10:52.744Z,3.78
2023-01-03T19:13:29.264Z,3.67
2023-01-03T19:15:56.905Z,3.35
2023-01-03T19:18:23.649Z,3.92
2023-01-03T19:20:51.198Z,3.00
2023-01-03T19:23:25.414Z,3.85
2023-01-03T19:25:54.610Z,3.15
2023-01-03T19:28:24.901Z,3.35
2023-01-03T19:30:52.121Z,3.53
2023-01-03T19:33:19.490Z,3.90
2023-01-03T19:35:46.840Z,3.92
2023-01-03T19:38:13.581Z,2.63
2023-01-03T19:40:43.495Z,3.10
2023-01-03T19:43:21.914Z,4.05
2023-01-03T19:45:49.304Z,3.72
2023-01-03T19:48:17.780Z,2.67
2023-01-03T19:50:45.160Z,3.78
2023-01-03T19:53:12.691Z,3.50
2023-01-03T19:55:45.317Z,3.65
2023-01-03T19:58:16.074Z,2.47
2023-01-03T20:00:42.838Z,3.47
2023-01-03T20:03:21.557Z,3.42
2023-01-03T20:05:48.329Z,3.55
2023-01-03T20:08:14.931Z,3.38
2023-01-03T20:10:43.843Z,3.28
2023-01-03T20:13:19.692Z,2.88
2023-01-03T20:15:48.661Z,3.22
2023-01-03T20:18:20.953Z,2.90
2023-01-03T20:20:48.816Z,2.70
2023-01-03T20:23:17.248Z,2.38
2023-01-03T20:25:44.747Z,2.97
2023-01-03T20:28:20.692Z,2.40
2023-01-03T20:30:47.460Z,2.75
2023-01-03T20:33:15.293Z,3.67
2023-01-03T20:38:28.602Z,2.90
2023-01-03T20:40:56.609Z,2.70
2023-01-03T20:43:23.967Z,2.35
2023-01-03T20:45:56.219Z,2.00
2023-01-03T20:48:26.220Z,2.60
2023-01-03T20:50:53.678Z,2.60
2023-01-03T20:53:23.045Z,3.10
2023-01-03T20:55:50.942Z,2.78
2023-01-03T20:58:20.824Z,2.47
2023-01-03T21:00:47.560Z,3.03
2023-01-03T21:03:14.331Z,3.05
2023-01-03T21:05:41.075Z,3.83
2023-01-03T21:08:33.022Z,2.72
2023-01-03T21:10:59.731Z,2.38
2023-01-03T21:13:26.752Z,3.25
2023-01-03T21:15:53.430Z,3.10
2023-01-03T21:18:20.079Z,3.00
2023-01-03T21:20:46.754Z,4.20
2023-01-03T21:23:22.688Z,2.78
2023-01-03T21:25:50.058Z,2.45
2023-01-03T21:28:16.848Z,3.00
2023-01-03T21:30:43.675Z,2.42
2023-01-03T21:33:21.695Z,2.30
2023-01-03T21:35:50.932Z,2.58
2023-01-03T21:38:17.757Z,2.08
2023-01-03T21:40:47.575Z,3.00
2023-01-03T21:43:14.258Z,2.85
2023-01-03T21:45:48.633Z,2.60
2023-01-03T21:48:17.460Z,2.88
2023-01-03T21:50:46.065Z,2.67
2023-01-03T21:53:14.782Z,2.63
2023-01-03T21:55:41.603Z,3.08
2023-01-03T21:58:09.216Z,3.30
2023-01-03T22:00:35.814Z,2.53
2023-01-03T22:03:21.567Z,2.38
2023-01-03T22:05:48.220Z,2.55
2023-01-03T22:08:14.865Z,2.97
2023-01-03T22:10:42.288Z,2.53
2023-01-03T22:13:10.524Z,2.40
2023-01-03T22:15:38.473Z,2.30
2023-01-03T22:18:07.774Z,2.38
2023-01-03T22:20:38.453Z,2.50
2023-01-03T22:23:06.602Z,2.22
2023-01-03T22:25:33.347Z,2.63
2023-01-03T22:28:00.228Z,2.63
2023-01-03T22:30:27.102Z,2.50
2023-01-03T22:32:57.260Z,2.00
2023-01-03T22:35:24.303Z,2.38
2023-01-03T22:37:51.195Z,2.13
2023-01-03T22:40:22.117Z,2.33
2023-01-03T22:42:48.937Z,2.45
2023-01-03T22:45:15.671Z,2.10
2023-01-03T22:47:42.675Z,2.60
2023-01-03T22:50:10.579Z,2.08
2023-01-03T22:52:38.827Z,2.63
2023-01-03T22:55:06.796Z,2.67
2023-01-03T22:57:33.451Z,2.05
2023-01-03T23:00:00.147Z,1.83
2023-01-03T23:02:29.246Z,2.50
2023-01-03T23:04:56.432Z,2.00
2023-01-03T23:07:23.272Z,2.70
2023-01-03T23:09:49.933Z,1.92
2023-01-03T23:12:35.286Z,2.80
2023-01-03T23:15:02.260Z,2.03
2023-01-03T23:17:47.737Z,2.15
2023-01-03T23:20:14.456Z,2.58
2023-01-03T23:22:43.701Z,2.60
2023-01-03T23:25:10.475Z,2.08
2023-01-03T23:27:37.161Z,1.90
2023-01-03T23:30:04.219Z,1.98
2023-01-03T23:32:32.476Z,1.60
2023-01-03T23:34:59.202Z,2.58
2023-01-03T23:37:26.527Z,1.58
2023-01-03T23:39:53.646Z,2.17
2023-01-03T23:42:20.404Z,2.17
2023-01-03T23:44:47.164Z,2.28
2023-01-03T23:47:13.864Z,2.05
2023-01-03T23:49:40.749Z,2.00
2023-01-03T23:52:07.643Z,1.60
2023-01-03T23:54:35.226Z,2.17
2023-01-03T23:57:01.909Z,2.30
2023-01-03T23:59:28.578Z,2.10
